Time;durP1;ratioP1;P1;durP2;ratioP2;P2;SDS_P1;SDS_P2;PMS_P1;PMS_P2;Temp;Humidity;BMP_temperature;BMP_pressure;BME280_temperature;BME280_humidity;BME280_pressure;Samples;Min_cycle;Max_cycle;Signal;HPM_P1;HPM_P2
2021/11/22 00:06:33;;;;;;;0.20;0.10;;;13.30;99.90;;;;;;20784851;28;20225;-72
2021/11/22 00:16:38;;;;;;;0.20;0.10;;;13.30;99.90;;;;;;20831171;28;20513;-72
2021/11/22 00:26:42;;;;;;;0.20;0.10;;;13.30;99.90;;;;;;20831738;28;20209;-72
2021/11/22 00:36:47;;;;;;;0.20;0.00;;;13.20;99.90;;;;;;20831431;28;20236;-72
2021/11/22 00:46:51;;;;;;;0.20;0.00;;;13.10;99.90;;;;;;20831360;28;20281;-73
2021/11/22 00:56:56;;;;;;;0.20;0.10;;;13.20;99.90;;;;;;20829085;28;20218;-72
2021/11/22 01:07:02;;;;;;;0.20;0.00;;;13.20;99.90;;;;;;20785737;28;20317;-73
2021/11/22 01:17:07;;;;;;;0.20;0.00;;;13.30;99.90;;;;;;20805888;28;20222;-74
2021/11/22 01:27:11;;;;;;;0.20;0.10;;;13.40;99.90;;;;;;20827093;28;20202;-72
2021/11/22 01:37:17;;;;;;;0.20;0.10;;;13.40;99.90;;;;;;20826956;28;20352;-71
2021/11/22 01:47:21;;;;;;;0.20;0.10;;;13.40;99.90;;;;;;20826434;28;20587;-71
2021/11/22 01:57:26;;;;;;;0.20;0.00;;;13.40;99.90;;;;;;20825536;28;20264;-72
2021/11/22 02:07:30;;;;;;;0.20;0.00;;;13.50;99.90;;;;;;20824528;28;20249;-73
2021/11/22 02:17:36;;;;;;;0.20;0.10;;;12.90;99.90;;;;;;20820937;28;20318;-75
2021/11/22 02:27:41;;;;;;;0.20;0.10;;;12.80;99.90;;;;;;20805927;28;20735;-73
2021/11/22 02:37:45;;;;;;;0.20;0.10;;;12.60;99.90;;;;;;20804231;28;20217;-74
2021/11/22 02:47:53;;;;;;;0.20;0.10;;;12.40;99.90;;;;;;20821180;28;20210;-73
2021/11/22 02:57:56;;;;;;;0.20;0.10;;;12.30;99.90;;;;;;20820736;28;20249;-72
2021/11/22 03:08:02;;;;;;;0.20;0.00;;;12.30;99.90;;;;;;20820207;28;20309;-73
2021/11/22 03:18:06;;;;;;;0.20;0.10;;;12.20;99.90;;;;;;20820525;28;20222;-76
2021/11/22 03:28:11;;;;;;;0.20;0.00;;;12.00;99.90;;;;;;20817822;28;20198;-73
2021/11/22 03:38:16;;;;;;;0.20;0.10;;;12.20;99.90;;;;;;20818903;28;20309;-71
2021/11/22 03:48:21;;;;;;;0.20;0.10;;;12.20;99.90;;;;;;20831865;28;20201;-71
2021/11/22 03:58:25;;;;;;;0.20;0.10;;;12.10;99.90;;;;;;20835897;28;20236;-74
2021/11/22 04:08:30;;;;;;;0.20;0.10;;;12.10;99.90;;;;;;20750589;28;20691;-71
2021/11/22 04:18:35;;;;;;;0.20;0.10;;;12.10;99.90;;;;;;20669615;28;20235;-72
2021/11/22 04:28:40;;;;;;;0.20;0.10;;;11.80;99.90;;;;;;20668451;28;20195;-71
2021/11/22 04:38:47;;;;;;;0.20;0.10;;;11.70;99.90;;;;;;20691161;28;20294;-73
2021/11/22 04:48:52;;;;;;;0.20;0.10;;;11.50;99.90;;;;;;20749077;28;20205;-73
2021/11/22 04:58:56;;;;;;;0.33;0.27;;;11.60;99.90;;;;;;20739218;28;20219;-72
2021/11/22 05:09:00;;;;;;;0.30;0.30;;;11.60;99.90;;;;;;20748583;28;20300;-71
2021/11/22 05:19:04;;;;;;;0.20;0.00;;;11.50;99.90;;;;;;20826766;28;20221;-71
2021/11/22 05:29:09;;;;;;;0.20;0.10;;;11.20;99.90;;;;;;20826246;28;20200;-73
2021/11/22 05:39:13;;;;;;;0.63;0.63;;;11.10;99.90;;;;;;20825283;28;20240;-72
2021/11/22 05:49:19;;;;;;;0.20;0.10;;;11.10;99.90;;;;;;20824411;28;20281;-73
2021/11/22 05:59:22;;;;;;;0.20;0.10;;;11.00;99.90;;;;;;20824257;28;20230;-72
2021/11/22 06:09:28;;;;;;;3.03;2.40;;;11.00;99.90;;;;;;20818184;28;20586;-72
2021/11/22 06:19:31;;;;;;;1.20;1.20;;;10.80;99.90;;;;;;20817571;28;20760;-73
2021/11/22 06:29:38;;;;;;;0.20;0.10;;;10.80;99.90;;;;;;20820942;28;20273;-72
2021/11/22 06:39:42;;;;;;;0.20;0.10;;;10.70;99.90;;;;;;20820585;28;20316;-72
2021/11/22 06:49:47;;;;;;;0.20;0.00;;;10.50;99.90;;;;;;20802178;28;20194;-74
2021/11/22 06:59:51;;;;;;;0.20;0.10;;;10.70;99.90;;;;;;20815310;28;20229;-74
2021/11/22 07:09:57;;;;;;;0.20;0.10;;;10.70;99.90;;;;;;20811340;28;20667;-77
2021/11/22 07:20:02;;;;;;;0.20;0.10;;;10.80;99.90;;;;;;20797753;28;20222;-73
2021/11/22 07:30:08;;;;;;;0.20;0.10;;;10.80;99.90;;;;;;20816743;28;20282;-73
2021/11/22 07:40:12;;;;;;;0.20;0.10;;;10.70;99.90;;;;;;20816282;28;20268;-76
2021/11/22 07:50:18;;;;;;;0.20;0.10;;;10.90;99.90;;;;;;20815803;28;20205;-75
2021/11/22 08:00:23;;;;;;;0.20;0.10;;;11.20;99.90;;;;;;20814007;28;20261;-73
2021/11/22 08:10:30;;;;;;;0.20;0.10;;;11.80;99.90;;;;;;20813724;28;20206;-74
2021/11/22 08:20:35;;;;;;;0.20;0.00;;;12.50;99.90;;;;;;20814024;28;20663;-73
2021/11/22 08:30:40;;;;;;;0.20;0.10;;;12.80;99.90;;;;;;20821147;28;20190;-74
2021/11/22 08:40:46;;;;;;;0.20;0.00;;;13.40;99.90;;;;;;20830039;28;20687;-74
2021/11/22 08:50:51;;;;;;;0.20;0.10;;;13.40;99.90;;;;;;20834000;28;20243;-75
2021/11/22 09:00:54;;;;;;;0.20;0.00;;;13.90;99.90;;;;;;20909422;28;20289;-76
2021/11/22 09:11:00;;;;;;;0.20;0.00;;;13.90;99.90;;;;;;20875958;28;20265;-74
2021/11/22 09:21:04;;;;;;;0.20;0.00;;;14.10;99.90;;;;;;20830403;28;20324;-75
2021/11/22 09:31:09;;;;;;;0.20;0.00;;;14.10;99.90;;;;;;20879456;28;20220;-74
2021/11/22 09:41:13;;;;;;;0.20;0.00;;;14.40;99.90;;;;;;20905739;28;20741;-74
2021/11/22 09:51:19;;;;;;;0.20;0.00;;;14.90;99.90;;;;;;20864094;28;20193;-76
2021/11/22 10:01:24;;;;;;;0.20;0.10;;;15.40;99.90;;;;;;20819989;28;20241;-74
2021/11/22 10:11:29;;;;;;;0.20;0.00;;;15.60;99.90;;;;;;20818735;28;20198;-73
2021/11/22 10:21:52;;;;;;;0.20;0.10;;;16.10;99.90;;;;;;20819358;28;20228;-72
2021/11/22 10:31:59;;;;;;;0.20;0.10;;;16.50;99.90;;;;;;20819745;28;20285;-73
2021/11/22 10:42:03;;;;;;;0.20;0.00;;;16.80;99.90;;;;;;20800141;28;20221;-75
2021/11/22 10:52:12;;;;;;;0.20;0.00;;;15.30;99.90;;;;;;20799006;28;20214;-73
2021/11/22 11:02:16;;;;;;;0.20;0.10;;;14.80;99.90;;;;;;20798814;28;20276;-71
2021/11/22 11:12:24;;;;;;;0.20;0.10;;;14.10;99.90;;;;;;20817000;28;20281;-75
2021/11/22 11:22:30;;;;;;;0.20;0.00;;;13.90;99.90;;;;;;20817464;28;20612;-75
2021/11/22 11:32:35;;;;;;;0.20;0.00;;;13.70;99.90;;;;;;20815987;28;20182;-74
2021/11/22 11:43:19;;;;;;;0.20;0.10;;;13.90;99.90;;;;;;20797119;28;20226;-74
2021/11/22 11:53:25;;;;;;;0.20;0.10;;;14.00;99.90;;;;;;20814787;28;20230;-75
2021/11/22 12:03:31;;;;;;;0.20;0.10;;;15.10;99.90;;;;;;20818929;28;20257;-75
2021/11/22 12:13:52;;;;;;;0.20;0.00;;;17.70;99.90;;;;;;20831050;28;20285;-73
2021/11/22 12:23:56;;;;;;;0.20;0.00;;;16.90;99.90;;;;;;20829680;28;20682;-73
2021/11/22 12:34:07;;;;;;;0.20;0.00;;;18.40;99.90;;;;;;20828750;28;20690;-74
2021/11/22 12:44:13;;;;;;;0.20;0.00;;;18.50;99.90;;;;;;20828054;28;20263;-75
2021/11/22 12:54:19;;;;;;;0.20;0.10;;;16.60;99.90;;;;;;20810903;28;20201;-72
2021/11/22 13:04:43;;;;;;;0.20;0.10;;;15.90;99.90;;;;;;20826586;28;20256;-73
2021/11/22 13:14:50;;;;;;;0.20;0.00;;;16.20;99.90;;;;;;20821832;28;20252;-74
2021/11/22 13:24:53;;;;;;;0.20;0.10;;;16.50;99.90;;;;;;20825083;28;20636;-76
2021/11/22 13:34:59;;;;;;;0.20;0.00;;;16.50;99.90;;;;;;20811120;28;20920;-74
2021/11/22 13:45:03;;;;;;;0.20;0.00;;;18.10;99.90;;;;;;20809834;28;20431;-73
2021/11/22 13:55:08;;;;;;;0.20;0.07;;;18.00;99.90;;;;;;20807054;28;20261;-74
2021/11/22 14:05:14;;;;;;;0.20;0.10;;;18.10;99.90;;;;;;20804557;28;20236;-71
2021/11/22 14:15:22;;;;;;;0.20;0.10;;;17.30;99.90;;;;;;20823066;28;20190;-71
2021/11/22 14:25:28;;;;;;;0.20;0.10;;;16.10;99.90;;;;;;20817958;28;20572;-71
2021/11/22 14:35:34;;;;;;;0.20;0.10;;;15.80;99.90;;;;;;20820609;28;20206;-70
2021/11/22 14:45:39;;;;;;;0.20;0.00;;;15.40;99.90;;;;;;20818934;28;20581;-69
2021/11/22 14:55:44;;;;;;;0.20;0.10;;;15.50;99.90;;;;;;20817411;28;20194;-70
2021/11/22 15:05:48;;;;;;;0.20;0.10;;;15.40;99.90;;;;;;20817186;28;20769;-71
2021/11/22 15:15:53;;;;;;;0.20;0.00;;;15.20;99.90;;;;;;20817373;28;20194;-71
2021/11/22 15:26:15;;;;;;;0.20;0.00;;;15.10;99.90;;;;;;21255963;27;20915;-71
2021/11/22 15:36:19;;;;;;;0.20;0.10;;;14.70;99.90;;;;;;21221577;27;20183;-70
2021/11/22 15:46:24;;;;;;;0.20;0.03;;;14.60;99.90;;;;;;21219271;28;20187;-71
2021/11/22 15:56:28;;;;;;;0.20;0.10;;;14.60;99.90;;;;;;21218517;28;20209;-69
2021/11/22 16:06:35;;;;;;;0.20;0.00;;;14.70;99.90;;;;;;21216134;27;20660;-73
2021/11/22 16:16:40;;;;;;;0.20;0.07;;;14.60;99.90;;;;;;21287499;27;20226;-70
2021/11/22 16:26:47;;;;;;;0.20;0.07;;;14.60;99.90;;;;;;21320079;27;20588;-70
2021/11/22 16:36:51;;;;;;;0.20;0.00;;;14.30;99.90;;;;;;21230260;27;20647;-69
2021/11/22 16:47:00;;;;;;;0.20;0.00;;;14.20;99.90;;;;;;21159224;28;20605;-70
2021/11/22 16:57:05;;;;;;;0.20;0.10;;;13.90;99.90;;;;;;21158300;27;20619;-70
2021/11/22 17:07:11;;;;;;;0.20;0.10;;;13.70;99.90;;;;;;21140437;28;20279;-71
2021/11/22 17:17:15;;;;;;;0.20;0.10;;;13.40;99.90;;;;;;21230068;27;20230;-70
2021/11/22 17:27:20;;;;;;;0.20;0.00;;;13.50;99.90;;;;;;21241513;27;20282;-71
2021/11/22 17:37:24;;;;;;;0.30;0.30;;;13.70;99.90;;;;;;21201347;27;20223;-70
2021/11/22 17:47:29;;;;;;;0.20;0.10;;;13.60;99.90;;;;;;21152897;27;20199;-70
2021/11/22 17:57:33;;;;;;;0.20;0.10;;;13.50;99.90;;;;;;21152722;28;20215;-71
2021/11/22 18:07:40;;;;;;;0.20;0.10;;;13.50;99.90;;;;;;21151194;28;20287;-70
2021/11/22 18:17:44;;;;;;;0.20;0.10;;;13.50;99.90;;;;;;21227657;27;20234;-75
2021/11/22 18:27:50;;;;;;;0.20;0.00;;;13.40;99.90;;;;;;21235659;27;20198;-69
2021/11/22 18:37:55;;;;;;;162.07;63.07;;;13.30;99.90;;;;;;21178084;27;20649;-70
2021/11/22 18:48:00;;;;;;;0.20;0.10;;;13.20;99.90;;;;;;21149134;28;20195;-72
2021/11/22 18:58:04;;;;;;;0.20;0.00;;;13.20;99.90;;;;;;21150162;28;20214;-70
2021/11/22 19:08:10;;;;;;;0.20;0.10;;;13.30;99.90;;;;;;21150465;28;20199;-70
2021/11/22 19:18:14;;;;;;;0.20;0.10;;;13.20;99.90;;;;;;21229160;27;20230;-71
2021/11/22 19:28:20;;;;;;;0.20;0.10;;;12.80;99.90;;;;;;21233994;27;20716;-70
2021/11/22 19:38:24;;;;;;;0.20;0.10;;;12.60;99.90;;;;;;21169093;27;20625;-72
2021/11/22 19:48:29;;;;;;;0.20;0.10;;;12.50;99.90;;;;;;21147838;28;20661;-69
2021/11/22 19:58:33;;;;;;;0.20;0.10;;;12.60;99.90;;;;;;21148062;28;20312;-72
2021/11/22 20:08:38;;;;;;;0.20;0.10;;;12.50;99.90;;;;;;21157161;27;20199;-75
2021/11/22 20:18:42;;;;;;;0.20;0.10;;;12.40;99.90;;;;;;21184495;27;20256;-72
2021/11/22 20:28:47;;;;;;;0.20;0.10;;;12.30;99.90;;;;;;21152117;27;20648;-73
2021/11/22 20:38:51;;;;;;;0.20;0.10;;;12.30;99.90;;;;;;21154880;27;20219;-74
2021/11/22 20:48:57;;;;;;;0.20;0.10;;;12.30;99.90;;;;;;21157300;28;20222;-75
2021/11/22 20:59:00;;;;;;;0.20;0.10;;;12.80;99.90;;;;;;21157006;28;20219;-75
2021/11/22 21:09:05;;;;;;;0.20;0.10;;;13.00;99.90;;;;;;21161250;27;20829;-74
2021/11/22 21:19:09;;;;;;;0.20;0.10;;;13.00;99.90;;;;;;21152478;27;20647;-71
2021/11/22 21:29:14;;;;;;;0.20;0.10;;;12.70;99.90;;;;;;21153544;27;20204;-70
2021/11/22 21:39:21;;;;;;;0.20;0.10;;;12.80;99.90;;;;;;21155519;28;20319;-72
2021/11/22 21:49:26;;;;;;;0.20;0.00;;;12.80;99.90;;;;;;21155941;28;20195;-70
2021/11/22 21:59:30;;;;;;;0.20;0.10;;;12.80;99.90;;;;;;21156143;28;20219;-70
2021/11/22 22:09:36;;;;;;;0.20;0.10;;;12.70;99.90;;;;;;21140990;27;20810;-72
2021/11/22 22:19:39;;;;;;;0.20;0.10;;;12.80;99.90;;;;;;21146259;27;20227;-70
2021/11/22 22:29:44;;;;;;;0.20;0.10;;;12.60;99.90;;;;;;21136447;27;20225;-70
2021/11/22 22:39:48;;;;;;;0.20;0.10;;;12.70;99.90;;;;;;21149803;27;20222;-72
2021/11/22 22:49:53;;;;;;;0.20;0.10;;;12.90;99.90;;;;;;21150755;27;20278;-70
2021/11/22 22:59:56;;;;;;;0.20;0.10;;;12.90;99.90;;;;;;21147874;28;20223;-69
2021/11/22 23:10:01;;;;;;;0.20;0.10;;;13.00;99.90;;;;;;21146401;27;20659;-70
2021/11/22 23:20:06;;;;;;;0.20;0.10;;;13.10;99.90;;;;;;21145497;28;20235;-71
2021/11/22 23:30:11;;;;;;;0.20;0.10;;;13.20;99.90;;;;;;21145025;28;20187;-69
2021/11/22 23:40:16;;;;;;;0.20;0.10;;;13.30;99.90;;;;;;21149146;28;20219;-69
2021/11/22 23:50:24;;;;;;;0.20;0.10;;;13.40;99.90;;;;;;21163480;28;20551;-69
